createdAt,value
2018-03-06T00:02:15.001Z,2.30
2018-03-06T00:04:42.917Z,2.30
2018-03-06T00:07:10.860Z,2.20
2018-03-06T00:09:38.808Z,2.30
2018-03-06T00:12:06.725Z,2.30
2018-03-06T00:14:34.664Z,2.20
2018-03-06T00:17:02.571Z,2.20
2018-03-06T00:19:30.505Z,2.30
2018-03-06T00:21:58.460Z,2.30
2018-03-06T00:24:26.384Z,2.40
2018-03-06T00:26:54.316Z,2.40
2018-03-06T00:29:22.259Z,2.40
2018-03-06T00:31:50.167Z,2.30
2018-03-06T00:34:18.078Z,2.30
2018-03-06T00:36:46.005Z,2.30
2018-03-06T00:39:13.930Z,2.40
2018-03-06T00:41:41.841Z,2.30
2018-03-06T00:44:09.759Z,2.20
2018-03-06T00:46:37.697Z,2.20
2018-03-06T00:49:05.630Z,2.20
2018-03-06T00:51:33.568Z,2.10
2018-03-06T00:54:01.483Z,2.10
2018-03-06T00:56:29.588Z,2.10
2018-03-06T00:58:57.513Z,2.00
2018-03-06T01:01:25.431Z,2.00
2018-03-06T01:03:53.329Z,2.00
2018-03-06T01:06:21.241Z,2.00
2018-03-06T01:08:49.155Z,1.90
2018-03-06T01:11:17.073Z,1.90
2018-03-06T01:13:45.018Z,1.90
2018-03-06T01:16:12.941Z,1.90
2018-03-06T01:18:40.852Z,1.80
2018-03-06T01:21:08.760Z,1.90
2018-03-06T01:23:36.663Z,1.90
2018-03-06T01:26:04.583Z,1.90
2018-03-06T01:28:32.513Z,1.90
2018-03-06T01:31:00.432Z,1.90
2018-03-06T01:33:28.352Z,1.90
2018-03-06T01:35:56.278Z,1.80
2018-03-06T01:38:24.195Z,1.90
2018-03-06T01:40:52.113Z,1.90
2018-03-06T01:43:20.036Z,1.90
2018-03-06T01:45:47.965Z,1.90
2018-03-06T01:48:15.922Z,1.90
2018-03-06T01:50:43.844Z,1.80
2018-03-06T01:53:11.753Z,1.80
2018-03-06T01:55:39.675Z,1.90
2018-03-06T01:58:07.598Z,1.80
2018-03-06T02:00:35.526Z,1.80
2018-03-06T02:03:03.444Z,1.80
2018-03-06T02:05:31.354Z,1.70
2018-03-06T02:07:59.265Z,1.70
2018-03-06T02:10:27.176Z,1.70
2018-03-06T02:12:55.085Z,1.60
2018-03-06T02:15:23.024Z,1.60
2018-03-06T02:17:51.428Z,1.70
2018-03-06T02:20:19.345Z,1.70
2018-03-06T02:22:47.288Z,1.60
2018-03-06T02:25:15.215Z,1.50
2018-03-06T02:27:43.123Z,1.60
2018-03-06T02:30:11.040Z,1.50
2018-03-06T02:32:38.964Z,1.50
2018-03-06T02:35:06.883Z,1.50
2018-03-06T02:37:34.801Z,1.60
2018-03-06T02:40:02.733Z,1.70
2018-03-06T02:42:30.645Z,1.60
2018-03-06T02:44:58.571Z,1.60
2018-03-06T02:47:26.493Z,1.60
2018-03-06T02:49:54.408Z,1.60
2018-03-06T02:52:22.333Z,1.60
2018-03-06T02:54:50.252Z,1.50
2018-03-06T02:57:18.180Z,1.50
2018-03-06T02:59:46.092Z,1.60
2018-03-06T03:02:14.021Z,1.60
2018-03-06T03:04:41.935Z,1.50
2018-03-06T03:07:09.853Z,1.50
2018-03-06T03:09:37.785Z,1.40
2018-03-06T03:12:05.697Z,1.50
2018-03-06T03:14:33.613Z,1.50
2018-03-06T03:17:01.520Z,1.50
2018-03-06T03:19:29.457Z,1.50
2018-03-06T03:21:57.383Z,1.40
2018-03-06T03:24:25.304Z,1.50
2018-03-06T03:26:53.220Z,1.50
2018-03-06T03:29:21.132Z,1.50
2018-03-06T03:31:49.049Z,1.40
2018-03-06T03:34:16.985Z,1.40
2018-03-06T03:36:44.906Z,1.50
2018-03-06T03:39:12.832Z,1.40
2018-03-06T03:41:40.744Z,1.40
2018-03-06T03:44:08.692Z,1.40
2018-03-06T03:46:36.601Z,1.40
2018-03-06T03:49:04.917Z,1.40
2018-03-06T03:51:32.829Z,1.40
2018-03-06T03:54:00.748Z,1.30
2018-03-06T03:56:28.659Z,1.30
2018-03-06T03:58:56.577Z,1.30
2018-03-06T04:01:24.500Z,1.30
2018-03-06T04:03:52.407Z,1.30
2018-03-06T04:06:20.400Z,1.30
2018-03-06T04:08:48.320Z,1.30
2018-03-06T04:11:16.248Z,1.30
2018-03-06T04:13:44.166Z,1.30
2018-03-06T04:16:12.100Z,1.30
2018-03-06T04:18:40.029Z,1.30
2018-03-06T04:21:07.952Z,1.30
2018-03-06T04:23:35.851Z,1.30
2018-03-06T04:26:03.804Z,1.20
2018-03-06T04:28:31.717Z,1.30
2018-03-06T04:30:59.697Z,1.20
2018-03-06T04:33:27.614Z,1.20
2018-03-06T04:35:55.565Z,1.20
2018-03-06T04:38:23.494Z,1.20
2018-03-06T04:40:51.419Z,1.20
2018-03-06T04:43:19.357Z,1.10
2018-03-06T04:45:47.289Z,1.20
2018-03-06T04:48:15.211Z,1.10
2018-03-06T04:50:43.125Z,1.10
2018-03-06T04:53:11.042Z,1.20
2018-03-06T04:55:38.965Z,1.10
2018-03-06T04:58:06.894Z,1.00
2018-03-06T05:00:34.809Z,1.00
2018-03-06T05:03:02.728Z,1.00
2018-03-06T05:05:30.665Z,1.00
2018-03-06T05:07:58.578Z,1.00
2018-03-06T05:10:26.492Z,1.00
2018-03-06T05:12:54.420Z,1.00
2018-03-06T05:15:22.329Z,1.00
2018-03-06T05:17:50.258Z,1.00
2018-03-06T05:20:18.176Z,0.90
2018-03-06T05:22:46.649Z,0.90
2018-03-06T05:25:14.565Z,0.90
2018-03-06T05:27:42.506Z,0.90
2018-03-06T05:30:17.466Z,0.80
2018-03-06T05:32:45.388Z,0.80
2018-03-06T05:35:13.309Z,0.80
2018-03-06T05:37:41.245Z,0.70
2018-03-06T05:40:09.169Z,0.70
2018-03-06T05:42:37.097Z,0.70
2018-03-06T05:45:05.033Z,0.80
2018-03-06T05:47:32.945Z,0.80
2018-03-06T05:50:00.900Z,0.80
2018-03-06T05:52:28.838Z,0.70
2018-03-06T05:54:57.120Z,0.70
2018-03-06T05:57:25.033Z,0.70
2018-03-06T05:59:52.953Z,0.70
2018-03-06T06:02:20.864Z,0.60
2018-03-06T06:04:48.774Z,0.70
2018-03-06T06:07:17.604Z,0.80
2018-03-06T06:09:45.528Z,0.70
2018-03-06T06:12:13.445Z,0.80
2018-03-06T06:14:41.352Z,0.80
2018-03-06T06:17:09.496Z,0.70
2018-03-06T06:19:37.395Z,0.70
2018-03-06T06:22:05.333Z,0.70
2018-03-06T06:24:33.260Z,0.80
2018-03-06T06:27:01.156Z,0.80
2018-03-06T06:29:29.136Z,0.90
2018-03-06T06:31:57.029Z,0.90
2018-03-06T06:34:24.933Z,1.00
2018-03-06T06:36:52.834Z,1.00
2018-03-06T06:39:20.864Z,1.00
2018-03-06T06:41:48.773Z,1.00
2018-03-06T06:44:16.677Z,1.10
2018-03-06T06:46:44.741Z,1.20
2018-03-06T06:49:12.656Z,1.20
2018-03-06T06:51:40.564Z,1.30
2018-03-06T06:54:08.465Z,1.40
2018-03-06T06:56:36.461Z,1.40
2018-03-06T06:59:04.368Z,1.50
2018-03-06T07:01:32.280Z,1.60
2018-03-06T07:04:00.184Z,1.60
2018-03-06T07:06:28.133Z,1.70
2018-03-06T07:08:56.036Z,1.80
2018-03-06T07:11:23.946Z,1.80
2018-03-06T07:13:51.857Z,1.80
2018-03-06T07:16:19.756Z,1.80
2018-03-06T07:18:47.653Z,1.90
2018-03-06T07:21:15.602Z,2.00
2018-03-06T07:23:43.479Z,2.10
2018-03-06T07:26:11.395Z,2.10
2018-03-06T07:28:39.300Z,2.20
2018-03-06T07:31:07.218Z,2.10
2018-03-06T07:33:35.134Z,2.10
2018-03-06T07:36:03.075Z,2.30
2018-03-06T07:38:30.977Z,2.30
2018-03-06T07:40:58.897Z,2.30
2018-03-06T07:43:26.793Z,2.30
2018-03-06T07:45:54.680Z,2.30
2018-03-06T07:48:22.587Z,2.40
2018-03-06T07:50:50.477Z,2.40
2018-03-06T07:53:18.425Z,2.50
2018-03-06T07:55:46.319Z,2.70
2018-03-06T07:58:14.224Z,2.80
2018-03-06T08:00:42.147Z,2.70
2018-03-06T08:03:10.378Z,2.80
2018-03-06T08:05:38.289Z,2.80
2018-03-06T08:08:07.045Z,2.90
2018-03-06T08:10:34.972Z,3.00
2018-03-06T08:13:02.884Z,3.00
2018-03-06T08:15:30.806Z,3.00
2018-03-06T08:17:58.714Z,3.10
2018-03-06T08:20:26.628Z,3.30
2018-03-06T08:22:54.545Z,3.30
2018-03-06T08:25:22.465Z,3.30
2018-03-06T08:27:50.368Z,3.40
2018-03-06T08:30:18.325Z,3.50
2018-03-06T08:32:46.245Z,3.70
2018-03-06T08:35:14.168Z,3.70
2018-03-06T08:37:42.120Z,3.70
2018-03-06T08:40:10.000Z,3.70
2018-03-06T08:42:37.924Z,3.70
2018-03-06T08:45:05.841Z,3.90
2018-03-06T08:47:33.753Z,4.00
2018-03-06T08:50:01.910Z,4.00
2018-03-06T08:52:29.829Z,4.20
2018-03-06T08:54:57.729Z,4.30
2018-03-06T08:57:25.640Z,4.40
2018-03-06T08:59:53.544Z,4.60
2018-03-06T09:02:21.454Z,4.60
2018-03-06T09:04:49.389Z,4.60
2018-03-06T09:07:17.309Z,4.70
2018-03-06T09:09:45.237Z,4.70
2018-03-06T09:12:13.187Z,4.90
2018-03-06T09:14:41.061Z,4.70
2018-03-06T09:17:09.169Z,4.80
2018-03-06T09:19:37.081Z,4.90
2018-03-06T09:22:05.007Z,5.00
2018-03-06T09:24:32.916Z,5.20
2018-03-06T09:27:07.887Z,5.20
2018-03-06T09:29:35.819Z,5.10
2018-03-06T09:32:03.728Z,5.20
2018-03-06T09:34:31.647Z,5.30
2018-03-06T09:36:59.583Z,5.40
2018-03-06T09:39:27.486Z,5.60
2018-03-06T09:41:55.402Z,5.70
2018-03-06T09:44:23.326Z,5.90
2018-03-06T09:46:51.236Z,6.00
2018-03-06T09:49:19.141Z,5.70
2018-03-06T09:51:47.037Z,5.40
2018-03-06T09:54:14.946Z,5.50
2018-03-06T09:56:42.852Z,5.50
2018-03-06T09:59:10.756Z,5.70
2018-03-06T10:01:38.681Z,5.80
2018-03-06T10:04:06.585Z,5.80
2018-03-06T10:06:34.541Z,6.00
2018-03-06T10:09:02.515Z,6.20
2018-03-06T10:11:30.463Z,6.20
2018-03-06T10:13:58.390Z,6.30
2018-03-06T10:16:26.325Z,6.50
2018-03-06T10:18:54.267Z,6.50
2018-03-06T10:21:22.533Z,6.50
2018-03-06T10:23:50.487Z,6.50
2018-03-06T10:26:18.445Z,6.50
2018-03-06T10:28:46.380Z,6.50
2018-03-06T10:31:14.335Z,6.50
2018-03-06T10:33:42.278Z,6.30
2018-03-06T10:36:10.226Z,6.30
2018-03-06T10:38:38.178Z,6.30
2018-03-06T10:41:06.124Z,6.30
2018-03-06T10:43:34.071Z,6.20
2018-03-06T10:46:02.038Z,6.30
2018-03-06T10:48:29.975Z,6.30
2018-03-06T10:50:57.926Z,6.50
2018-03-06T10:53:25.868Z,6.60
2018-03-06T10:55:53.834Z,6.80
2018-03-06T10:58:21.806Z,7.00
2018-03-06T11:00:49.818Z,6.80
2018-03-06T11:03:22.664Z,6.60
2018-03-06T11:05:50.569Z,6.60
2018-03-06T11:08:18.462Z,6.80
2018-03-06T11:10:46.373Z,6.90
2018-03-06T11:13:14.361Z,7.10
2018-03-06T11:15:42.280Z,7.10
2018-03-06T11:18:10.172Z,7.20
2018-03-06T11:20:38.345Z,7.30
2018-03-06T11:23:06.307Z,7.50
2018-03-06T11:25:34.201Z,7.70
2018-03-06T11:28:02.124Z,7.70
2018-03-06T11:30:30.036Z,7.80
2018-03-06T11:32:57.928Z,7.90
2018-03-06T11:35:25.835Z,7.90
2018-03-06T11:37:53.789Z,7.80
2018-03-06T11:40:21.692Z,7.80
2018-03-06T11:42:49.614Z,7.90
2018-03-06T11:45:17.522Z,7.80
2018-03-06T11:47:45.424Z,7.70
2018-03-06T11:50:13.345Z,7.70
2018-03-06T11:52:41.252Z,7.80
2018-03-06T11:55:09.166Z,7.90
2018-03-06T11:57:37.166Z,8.00
2018-03-06T12:00:05.060Z,8.20
2018-03-06T12:02:32.985Z,8.40
2018-03-06T12:05:00.884Z,8.60
2018-03-06T12:07:28.789Z,8.60
2018-03-06T12:09:56.700Z,8.50
2018-03-06T12:12:24.621Z,8.60
2018-03-06T12:14:52.544Z,8.60
2018-03-06T12:17:20.464Z,8.50
2018-03-06T12:19:48.364Z,8.50
2018-03-06T12:22:16.266Z,8.40
2018-03-06T12:24:44.161Z,8.20
2018-03-06T12:27:12.077Z,8.20
2018-03-06T12:29:39.980Z,8.30
2018-03-06T12:32:07.904Z,8.40
2018-03-06T12:34:35.805Z,8.40
2018-03-06T12:37:03.745Z,8.30
2018-03-06T12:39:31.656Z,8.50
2018-03-06T12:41:59.572Z,8.50
2018-03-06T12:44:27.472Z,8.70
2018-03-06T12:46:55.389Z,8.80
2018-03-06T12:49:23.302Z,8.90
2018-03-06T12:51:51.200Z,8.90
2018-03-06T12:54:19.157Z,8.90
2018-03-06T12:56:47.089Z,8.90
2018-03-06T12:59:14.984Z,8.70
2018-03-06T13:01:42.912Z,8.70
2018-03-06T13:04:10.828Z,8.50
2018-03-06T13:06:38.725Z,8.60
2018-03-06T13:09:06.620Z,8.50
2018-03-06T13:11:34.522Z,8.40
2018-03-06T13:14:02.444Z,8.60
2018-03-06T13:16:30.358Z,8.80
2018-03-06T13:18:58.266Z,8.70
2018-03-06T13:21:26.195Z,8.80
2018-03-06T13:23:54.202Z,8.80
2018-03-06T13:26:22.076Z,8.90
2018-03-06T13:28:49.984Z,9.00
2018-03-06T13:31:17.892Z,8.90
2018-03-06T13:33:45.797Z,8.80
2018-03-06T13:36:13.713Z,8.70
2018-03-06T13:38:42.302Z,8.70
2018-03-06T13:41:10.200Z,8.70
2018-03-06T13:43:38.121Z,8.80
2018-03-06T13:46:06.029Z,8.70
2018-03-06T13:48:33.933Z,8.90
2018-03-06T13:51:01.862Z,9.10
2018-03-06T13:53:29.772Z,9.20
2018-03-06T13:55:57.709Z,9.40
2018-03-06T13:58:25.608Z,9.50
2018-03-06T14:00:53.525Z,9.60
2018-03-06T14:03:21.432Z,9.60
2018-03-06T14:05:49.349Z,9.60
2018-03-06T14:08:17.255Z,9.60
2018-03-06T14:10:45.165Z,9.50
2018-03-06T14:13:13.065Z,9.20
2018-03-06T14:15:40.982Z,9.10
2018-03-06T14:18:08.882Z,9.20
2018-03-06T14:20:36.788Z,9.20
2018-03-06T14:23:04.697Z,9.20
2018-03-06T14:25:33.096Z,9.20
2018-03-06T14:30:24.678Z,9.50
2018-03-06T14:32:52.639Z,9.50
2018-03-06T14:35:20.554Z,9.60
2018-03-06T14:37:48.485Z,9.70
2018-03-06T14:43:09.218Z,9.30
2018-03-06T14:45:37.144Z,9.20
2018-03-06T14:48:12.168Z,9.30
2018-03-06T14:50:40.066Z,9.40
2018-03-06T14:53:07.981Z,9.40
2018-03-06T14:55:35.882Z,9.50
2018-03-06T14:58:03.786Z,9.50
2018-03-06T15:00:31.705Z,9.40
2018-03-06T15:02:59.645Z,9.30
2018-03-06T15:05:27.554Z,9.20
2018-03-06T15:07:55.514Z,9.20
2018-03-06T15:10:23.424Z,9.30
2018-03-06T15:12:51.329Z,9.50
2018-03-06T15:15:19.240Z,9.50
2018-03-06T15:17:47.164Z,9.40
2018-03-06T15:20:15.069Z,9.30
2018-03-06T15:22:42.968Z,9.30
2018-03-06T15:25:10.905Z,9.20
2018-03-06T15:27:38.885Z,9.20
2018-03-06T15:30:06.812Z,9.10
2018-03-06T15:32:34.720Z,9.10
2018-03-06T15:35:02.631Z,9.10
2018-03-06T15:37:30.545Z,9.10
2018-03-06T15:39:58.469Z,9.10
2018-03-06T15:42:26.381Z,9.00
2018-03-06T15:44:54.285Z,9.00
2018-03-06T15:47:22.206Z,9.00
2018-03-06T15:49:50.102Z,8.90
2018-03-06T15:52:18.161Z,8.70
2018-03-06T15:54:46.077Z,8.70
2018-03-06T15:57:13.993Z,8.80
2018-03-06T15:59:41.917Z,8.70
2018-03-06T16:02:09.850Z,8.60
2018-03-06T16:04:37.762Z,8.50
2018-03-06T16:07:05.673Z,8.50
2018-03-06T16:09:33.599Z,8.30
2018-03-06T16:12:01.505Z,8.20
2018-03-06T16:14:29.413Z,8.30
2018-03-06T16:16:57.329Z,8.20
2018-03-06T16:19:25.228Z,8.20
2018-03-06T16:21:53.558Z,8.10
2018-03-06T16:24:21.460Z,8.10
2018-03-06T16:26:49.358Z,8.00
2018-03-06T16:29:17.273Z,8.00
2018-03-06T16:31:45.177Z,7.90
2018-03-06T16:34:13.089Z,7.80
2018-03-06T16:36:41.000Z,7.80
2018-03-06T16:39:08.899Z,7.70
2018-03-06T16:41:36.800Z,7.70
2018-03-06T16:44:04.700Z,7.60
2018-03-06T16:46:32.605Z,7.70
2018-03-06T16:49:00.525Z,7.60
2018-03-06T16:51:28.508Z,7.50
2018-03-06T16:53:56.430Z,7.50
2018-03-06T16:56:31.277Z,7.50
2018-03-06T16:58:59.177Z,7.30
2018-03-06T17:01:27.077Z,7.30
2018-03-06T17:03:54.999Z,7.20
2018-03-06T17:06:22.900Z,7.10
2018-03-06T17:08:50.836Z,7.10
2018-03-06T17:11:18.754Z,7.10
2018-03-06T17:13:46.657Z,7.10
2018-03-06T17:16:14.555Z,7.10
2018-03-06T17:18:42.459Z,7.00
2018-03-06T17:21:10.657Z,7.00
2018-03-06T17:23:38.565Z,7.00
2018-03-06T17:26:06.465Z,6.90
2018-03-06T17:28:34.390Z,6.90
2018-03-06T17:31:02.309Z,6.80
2018-03-06T17:33:30.218Z,6.80
2018-03-06T17:35:58.121Z,6.70
2018-03-06T17:38:26.053Z,6.70
2018-03-06T17:40:53.962Z,6.60
2018-03-06T17:43:21.873Z,6.50
2018-03-06T17:45:49.781Z,6.50
2018-03-06T17:48:24.533Z,6.50
2018-03-06T17:50:52.857Z,6.50
2018-03-06T17:53:20.761Z,6.40
2018-03-06T17:55:48.669Z,6.50
2018-03-06T17:58:16.584Z,6.40
2018-03-06T18:00:44.557Z,6.30
2018-03-06T18:03:12.465Z,6.30
2018-03-06T18:05:40.385Z,6.20
2018-03-06T18:08:08.532Z,6.30
2018-03-06T18:10:36.436Z,6.30
2018-03-06T18:13:04.344Z,6.20
2018-03-06T18:15:32.273Z,6.20
2018-03-06T18:18:00.180Z,6.20
2018-03-06T18:20:28.114Z,6.20
2018-03-06T18:22:56.055Z,6.20
2018-03-06T18:25:23.971Z,6.20
2018-03-06T18:27:52.298Z,6.30
2018-03-06T18:30:20.197Z,6.30
2018-03-06T18:32:48.100Z,6.20
2018-03-06T18:35:16.008Z,6.20
2018-03-06T18:37:43.919Z,6.10
2018-03-06T18:40:11.831Z,6.10
2018-03-06T18:42:39.761Z,6.00
2018-03-06T18:45:07.668Z,6.00
2018-03-06T18:47:35.577Z,6.10
2018-03-06T18:50:03.496Z,6.10
2018-03-06T18:52:31.657Z,6.00
2018-03-06T18:54:59.574Z,6.00
2018-03-06T18:57:27.478Z,6.00
2018-03-06T19:03:23.457Z,5.80
2018-03-06T19:05:59.522Z,5.80
2018-03-06T19:08:27.449Z,5.70
2018-03-06T19:10:55.385Z,5.80
2018-03-06T19:13:23.296Z,5.60
2018-03-06T19:15:51.226Z,5.60
2018-03-06T19:18:19.157Z,5.70
2018-03-06T19:20:47.076Z,5.80
2018-03-06T19:23:15.002Z,5.80
2018-03-06T19:25:42.917Z,5.80
2018-03-06T19:28:10.836Z,5.60
2018-03-06T19:30:38.897Z,5.60
2018-03-06T19:33:06.673Z,5.40
2018-03-06T19:35:34.581Z,5.40
2018-03-06T19:38:02.523Z,5.50
2018-03-06T19:40:30.440Z,5.50
2018-03-06T19:42:58.359Z,5.40
2018-03-06T19:45:26.272Z,5.30
2018-03-06T19:47:54.204Z,5.40
2018-03-06T19:50:22.401Z,5.40
2018-03-06T19:52:50.334Z,5.40
2018-03-06T19:55:18.241Z,5.40
2018-03-06T19:57:46.161Z,5.30
2018-03-06T20:00:14.087Z,5.30
2018-03-06T20:02:42.014Z,5.30
2018-03-06T20:05:09.948Z,5.20
2018-03-06T20:07:37.870Z,5.10
2018-03-06T20:10:06.637Z,5.10
2018-03-06T20:12:34.581Z,5.20
2018-03-06T20:15:08.766Z,5.10
2018-03-06T20:17:40.615Z,5.10
2018-03-06T20:20:08.594Z,5.00
2018-03-06T20:22:37.124Z,4.90
2018-03-06T20:25:11.276Z,5.00
2018-03-06T20:27:39.177Z,4.90
2018-03-06T20:30:07.113Z,4.90
2018-03-06T20:35:45.344Z,4.80
2018-03-06T20:38:23.454Z,4.90
2018-03-06T20:40:51.423Z,4.90
2018-03-06T20:43:19.360Z,4.90
2018-03-06T20:45:53.422Z,4.90
2018-03-06T20:48:21.341Z,4.80
2018-03-06T20:50:49.259Z,4.80
2018-03-06T20:53:23.205Z,4.80
2018-03-06T20:55:51.145Z,4.80
2018-03-06T20:58:19.081Z,4.70
2018-03-06T21:00:47.314Z,4.70
2018-03-06T21:03:15.228Z,4.60
2018-03-06T21:05:43.149Z,4.50
2018-03-06T21:08:11.064Z,4.50
2018-03-06T21:10:38.984Z,4.50
2018-03-06T21:13:06.896Z,4.50
2018-03-06T21:15:34.811Z,4.50
2018-03-06T21:18:02.750Z,4.60
2018-03-06T21:20:30.660Z,4.60
2018-03-06T21:22:58.637Z,4.60
2018-03-06T21:25:26.556Z,4.50
2018-03-06T21:27:54.477Z,4.50
2018-03-06T21:30:22.388Z,4.50
2018-03-06T21:32:50.290Z,4.40
2018-03-06T21:35:18.205Z,4.50
2018-03-06T21:37:46.108Z,4.50
2018-03-06T21:40:14.016Z,4.50
2018-03-06T21:42:41.929Z,4.50
2018-03-06T21:45:09.832Z,4.50
2018-03-06T21:47:37.741Z,4.60
2018-03-06T21:50:05.653Z,4.50
2018-03-06T21:52:33.591Z,4.40
2018-03-06T21:55:01.489Z,4.40
2018-03-06T21:57:29.657Z,4.40
2018-03-06T21:59:57.564Z,4.40
2018-03-06T22:02:25.460Z,4.40
2018-03-06T22:04:53.360Z,4.40
2018-03-06T22:07:21.272Z,4.30
2018-03-06T22:09:49.188Z,4.30
2018-03-06T22:12:17.104Z,4.20
2018-03-06T22:14:45.015Z,4.20
2018-03-06T22:17:12.921Z,4.30
2018-03-06T22:19:40.837Z,4.40
2018-03-06T22:22:08.741Z,4.40
2018-03-06T22:24:36.670Z,4.40
2018-03-06T22:27:04.582Z,4.30
2018-03-06T22:29:32.537Z,4.30
2018-03-06T22:32:00.469Z,4.20
2018-03-06T22:34:28.368Z,4.20
2018-03-06T22:36:56.286Z,4.10
2018-03-06T22:39:24.225Z,4.20
2018-03-06T22:41:52.133Z,4.00
2018-03-06T22:44:20.041Z,4.10
2018-03-06T22:46:47.945Z,4.00
2018-03-06T22:49:15.871Z,4.00
2018-03-06T22:51:44.056Z,4.10
2018-03-06T22:54:11.985Z,4.10
2018-03-06T22:56:39.890Z,4.10
2018-03-06T22:59:07.797Z,4.10
2018-03-06T23:01:35.717Z,4.20
2018-03-06T23:04:03.633Z,4.10
2018-03-06T23:06:31.545Z,4.10
2018-03-06T23:08:59.463Z,4.10
2018-03-06T23:11:27.372Z,4.00
2018-03-06T23:13:55.264Z,4.00
2018-03-06T23:16:23.144Z,4.00
2018-03-06T23:18:51.037Z,3.90
2018-03-06T23:21:18.949Z,3.90
2018-03-06T23:23:46.848Z,3.90
2018-03-06T23:26:14.761Z,3.90
2018-03-06T23:28:42.677Z,3.90
2018-03-06T23:31:10.573Z,3.90
2018-03-06T23:33:38.464Z,3.80
2018-03-06T23:36:06.382Z,3.80
2018-03-06T23:38:34.284Z,3.90
2018-03-06T23:41:02.183Z,3.80
2018-03-06T23:43:30.079Z,3.80
2018-03-06T23:45:57.983Z,3.80
2018-03-06T23:48:25.900Z,3.80
2018-03-06T23:50:53.810Z,3.80
2018-03-06T23:53:21.737Z,3.80
2018-03-06T23:55:49.640Z,3.70
2018-03-06T23:58:17.543Z,3.80
